Time;durP1;ratioP1;P1;durP2;ratioP2;P2;SDS_P1;SDS_P2;PMS_P1;PMS_P2;Temp;Humidity;BMP_temperature;BMP_pressure;BME280_temperature;BME280_humidity;BME280_pressure;Samples;Min_cycle;Max_cycle;Signal;HPM_P1;HPM_P2
2022/10/12 00:02:06;;;;;;;;;24.00;21.50;;;;;17.24;55.45;99435.59;4957440;28;102639;-42
2022/10/12 00:04:33;;;;;;;;;25.00;22.25;;;;;17.23;55.41;99435.81;4958499;28;102631;-43
2022/10/12 00:07:00;;;;;;;;;24.75;24.00;;;;;17.24;54.62;99437.50;4959000;28;111969;-42
2022/10/12 00:09:27;;;;;;;;;24.50;23.00;;;;;17.22;54.89;99429.50;4966652;28;103872;-42
2022/10/12 00:11:54;;;;;;;;;28.75;25.75;;;;;17.22;54.90;99436.88;4962471;28;102474;-43
2022/10/12 00:14:21;;;;;;;;;26.75;24.00;;;;;17.18;55.40;99422.81;4960477;28;103569;-42
2022/10/12 00:16:48;;;;;;;;;27.50;20.50;;;;;17.20;54.52;99431.63;4958386;28;102642;-44
2022/10/12 00:19:15;;;;;;;;;25.75;24.00;;;;;17.19;54.65;99434.59;4967319;28;106546;-43
2022/10/12 00:21:42;;;;;;;;;24.25;22.25;;;;;17.19;55.45;99437.31;4980217;28;102907;-43
2022/10/12 00:24:09;;;;;;;;;20.75;19.00;;;;;17.18;54.36;99438.38;4960714;28;102660;-43
2022/10/12 00:26:36;;;;;;;;;28.25;26.00;;;;;17.17;54.79;99431.22;4968300;28;102155;-43
2022/10/12 00:29:03;;;;;;;;;23.50;22.50;;;;;17.16;54.87;99435.03;4963441;28;104076;-43
2022/10/12 00:31:30;;;;;;;;;24.50;24.00;;;;;17.15;54.31;99436.09;4965112;28;105784;-43
2022/10/12 00:34:01;;;;;;;;;20.75;15.25;;;;;17.15;54.54;99433.38;4961009;28;102488;-43
2022/10/12 00:36:31;;;;;;;;;24.75;24.50;;;;;17.14;54.64;99432.53;4973851;28;102253;-43
2022/10/12 00:38:58;;;;;;;;;26.00;25.00;;;;;17.15;54.50;99427.91;4969128;28;104085;-43
2022/10/12 00:41:28;;;;;;;;;26.50;25.25;;;;;17.16;54.76;99437.75;4969625;28;103183;-43
2022/10/12 00:43:55;;;;;;;;;26.00;23.00;;;;;17.15;54.42;99433.38;4961872;28;102450;-42
2022/10/12 00:46:40;;;;;;;;;28.25;24.50;;;;;17.14;54.69;99432.53;4968831;28;102558;-43
2022/10/12 00:49:11;;;;;;;;;29.75;25.00;;;;;17.14;54.83;99434.41;4965931;28;104110;-43
2022/10/12 00:51:39;;;;;;;;;28.00;23.25;;;;;17.14;55.15;99428.97;4963757;28;102398;-43
2022/10/12 00:54:08;;;;;;;;;27.75;25.50;;;;;17.13;54.04;99436.31;4965126;28;102430;-43
2022/10/12 00:56:36;;;;;;;;;28.75;22.50;;;;;17.11;55.18;99432.16;4968835;28;103623;-44
2022/10/12 00:59:05;;;;;;;;;28.00;27.00;;;;;17.10;54.91;99435.94;4952682;28;104484;-43
2022/10/12 01:01:33;;;;;;;;;28.00;25.50;;;;;17.09;55.47;99440.56;4952318;28;102282;-42
2022/10/12 01:04:00;;;;;;;;;28.50;25.25;;;;;17.08;54.36;99438.88;4971494;28;102389;-43
2022/10/12 01:06:28;;;;;;;;;29.00;24.25;;;;;17.08;54.05;99438.88;4958712;28;102608;-42
2022/10/12 01:09:03;;;;;;;;;27.75;24.00;;;;;17.07;54.54;99433.63;4955166;28;104033;-43
2022/10/12 01:11:49;;;;;;;;;27.75;25.50;;;;;17.07;53.93;99433.63;4964594;28;106256;-42
2022/10/12 01:14:33;;;;;;;;;24.00;22.00;;;;;17.05;54.33;99430.28;4964991;28;102589;-43
2022/10/12 01:17:35;;;;;;;;;28.50;26.00;;;;;17.03;54.92;99422.31;4959984;27;102990;-43
2022/10/12 01:20:38;;;;;;;;;28.00;25.75;;;;;17.03;54.37;99424.19;4957983;28;107847;-43
2022/10/12 01:23:34;;;;;;;;;31.25;25.50;;;;;17.02;54.37;99425.28;4963668;28;102587;-42
2022/10/12 01:26:45;;;;;;;;;32.00;27.25;;;;;17.02;54.80;99423.34;4968553;28;102128;-47
2022/10/12 01:29:35;;;;;;;;;26.25;25.50;;;;;17.03;54.35;99425.03;4967801;28;102354;-43
2022/10/12 01:32:17;;;;;;;;;26.00;24.00;;;;;17.03;54.46;99424.19;4952993;28;108601;-42
2022/10/12 01:34:47;;;;;;;;;28.25;27.25;;;;;17.01;54.47;99421.72;4959804;28;102591;-43
2022/10/12 01:37:22;;;;;;;;;29.75;26.00;;;;;17.02;54.40;99425.28;4949086;28;102284;-43
2022/10/12 01:39:52;;;;;;;;;30.25;28.00;;;;;17.02;54.45;99428.00;4967005;28;102414;-42
2022/10/12 01:42:25;;;;;;;;;18.50;15.75;;;;;17.00;54.81;99430.97;4962363;28;108785;-50
2022/10/12 01:45:13;;;;;;;;;26.00;23.00;;;;;16.99;54.77;99429.28;4966862;28;103644;-42
2022/10/12 01:47:40;;;;;;;;;29.00;25.25;;;;;17.00;54.26;99424.66;4975702;28;102659;-42
2022/10/12 01:50:09;;;;;;;;;24.00;22.75;;;;;16.98;54.29;99429.50;4964864;28;102146;-42
2022/10/12 01:53:07;;;;;;;;;26.75;25.50;;;;;16.97;54.11;99431.41;4958491;28;104092;-42
2022/10/12 01:55:51;;;;;;;;;28.00;26.00;;;;;16.97;54.21;99433.31;4944347;28;102479;-42
2022/10/12 01:58:24;;;;;;;;;28.00;24.00;;;;;16.94;54.72;99427.22;4963095;28;107956;-42
2022/10/12 02:00:56;;;;;;;;;29.00;25.25;;;;;16.94;54.45;99432.69;4963267;28;102456;-42
2022/10/12 02:03:37;;;;;;;;;29.00;25.00;;;;;16.93;54.95;99430.19;4965026;28;109319;-41
2022/10/12 02:06:16;;;;;;;;;28.00;25.25;;;;;16.92;54.52;99428.50;4958294;28;102424;-43
2022/10/12 02:08:53;;;;;;;;;26.50;23.75;;;;;16.91;54.59;99432.28;4963742;28;102566;-43
2022/10/12 02:11:21;;;;;;;;;29.00;23.00;;;;;16.91;54.81;99427.66;4958603;28;102179;-43
2022/10/12 02:14:16;;;;;;;;;27.25;25.25;;;;;16.91;54.01;99430.41;4973109;28;108940;-43
2022/10/12 02:16:49;;;;;;;;;27.50;26.00;;;;;16.92;53.82;99429.34;4957114;28;102364;-42
2022/10/12 02:19:18;;;;;;;;;26.75;25.25;;;;;16.92;54.06;99434.81;4962466;28;103097;-42
2022/10/12 02:21:45;;;;;;;;;27.75;24.00;;;;;16.91;54.76;99430.41;4951803;28;102287;-43
2022/10/12 02:24:12;;;;;;;;;30.00;25.50;;;;;16.90;53.94;99431.44;4971525;28;104075;-42
2022/10/12 02:26:40;;;;;;;;;27.25;23.75;;;;;16.90;54.61;99425.16;4968785;28;102132;-42
2022/10/12 02:29:10;;;;;;;;;26.50;25.00;;;;;16.89;54.69;99424.31;4967418;28;102336;-42
2022/10/12 02:31:44;;;;;;;;;27.25;24.75;;;;;16.89;54.20;99423.47;4948081;28;103830;-43
2022/10/12 02:34:17;;;;;;;;;29.50;25.50;;;;;16.88;54.59;99422.66;4955548;28;103671;-43
2022/10/12 02:36:55;;;;;;;;;25.25;24.00;;;;;16.87;53.91;99423.72;4964554;28;102935;-42
2022/10/12 02:39:25;;;;;;;;;26.50;24.25;;;;;16.86;54.60;99424.75;4950635;28;102231;-42
2022/10/12 02:41:54;;;;;;;;;23.00;22.00;;;;;16.86;54.32;99432.13;4959476;28;103076;-42
2022/10/12 02:44:23;;;;;;;;;28.50;25.50;;;;;16.86;54.59;99429.38;4950667;28;108789;-42
2022/10/12 02:46:50;;;;;;;;;26.00;24.50;;;;;16.84;54.65;99429.59;4948663;28;102030;-43
2022/10/12 02:49:17;;;;;;;;;27.75;25.75;;;;;16.85;54.70;99434.00;4964723;28;102362;-42
2022/10/12 02:51:44;;;;;;;;;34.25;28.25;;;;;16.83;54.91;99438.03;4965295;28;102788;-43
2022/10/12 02:54:11;;;;;;;;;27.50;26.25;;;;;16.82;54.15;99439.91;4965070;28;105642;-42
2022/10/12 02:56:43;;;;;;;;;31.75;30.50;;;;;16.82;54.48;99431.72;4957887;28;102762;-42
2022/10/12 02:59:10;;;;;;;;;29.00;27.00;;;;;16.81;54.12;99434.66;4965761;28;102391;-42
2022/10/12 03:01:38;;;;;;;;;28.50;24.25;;;;;16.81;54.46;99438.25;4961602;28;102282;-46
2022/10/12 03:04:05;;;;;;;;;28.50;23.00;;;;;16.81;54.79;99432.78;4962007;28;104420;-43
2022/10/12 03:06:32;;;;;;;;;26.00;23.75;;;;;16.81;54.39;99432.78;4966318;28;102354;-42
2022/10/12 03:09:00;;;;;;;;;27.50;24.00;;;;;16.81;54.09;99432.78;4962515;28;102514;-42
2022/10/12 03:11:27;;;;;;;;;26.00;25.00;;;;;16.81;54.57;99431.94;4961999;28;102611;-42
2022/10/12 03:13:54;;;;;;;;;25.50;23.25;;;;;16.81;55.08;99432.78;4959992;27;104362;-43
2022/10/12 03:16:21;;;;;;;;;23.25;22.25;;;;;16.81;54.89;99432.78;4965633;28;102080;-43
2022/10/12 03:18:49;;;;;;;;;28.75;26.25;;;;;16.79;55.06;99431.34;4961197;28;103714;-43
2022/10/12 03:21:16;;;;;;;;;27.25;25.50;;;;;16.79;54.05;99423.13;4963604;28;102736;-43
2022/10/12 03:23:43;;;;;;;;;27.50;23.25;;;;;16.77;53.56;99419.78;4952270;28;104196;-42
2022/10/12 03:26:10;;;;;;;;;25.75;25.25;;;;;16.77;54.14;99426.09;4964037;28;102262;-43
2022/10/12 03:28:36;;;;;;;;;30.25;26.25;;;;;16.76;54.16;99427.13;4969479;28;102953;-42
2022/10/12 03:31:04;;;;;;;;;22.25;19.50;;;;;16.76;54.41;99421.66;4965876;28;104881;-42
2022/10/12 03:33:31;;;;;;;;;24.75;23.50;;;;;16.75;54.94;99425.44;4964073;28;104072;-42
2022/10/12 03:35:58;;;;;;;;;26.00;24.75;;;;;16.75;54.57;99428.19;4967010;28;102667;-42
2022/10/12 03:38:25;;;;;;;;;25.00;23.00;;;;;16.74;54.53;99437.47;4968050;28;102288;-42
2022/10/12 03:40:52;;;;;;;;;28.25;24.75;;;;;16.73;53.98;99430.31;4961718;28;103777;-42
2022/10/12 03:43:19;;;;;;;;;24.00;23.25;;;;;16.74;54.79;99442.06;4962108;28;108837;-42
2022/10/12 03:45:46;;;;;;;;;25.50;25.00;;;;;16.73;54.24;99435.78;4960075;28;102968;-42
2022/10/12 03:48:13;;;;;;;;;26.00;23.75;;;;;16.71;54.49;99435.16;4961464;28;103815;-43
2022/10/12 03:50:40;;;;;;;;;28.75;24.00;;;;;16.72;54.64;99436.81;4967984;27;103324;-43
2022/10/12 03:53:07;;;;;;;;;25.25;23.50;;;;;16.72;54.28;99438.72;4959372;28;105015;-43
2022/10/12 03:55:34;;;;;;;;;27.75;24.25;;;;;16.72;54.70;99441.44;4967132;28;102302;-42
2022/10/12 03:58:01;;;;;;;;;28.75;25.00;;;;;16.71;54.00;99446.06;4966496;28;102163;-43
2022/10/12 04:00:28;;;;;;;;;28.00;27.75;;;;;16.71;54.41;99442.50;4961588;28;102429;-42
2022/10/12 04:02:55;;;;;;;;;24.00;22.25;;;;;16.71;53.93;99445.22;4966813;28;104063;-42
2022/10/12 04:05:22;;;;;;;;;25.50;22.00;;;;;16.70;54.05;99447.16;4975451;28;102319;-42
2022/10/12 04:07:49;;;;;;;;;28.00;23.50;;;;;16.69;54.16;99445.47;4966788;28;102571;-42
2022/10/12 04:10:17;;;;;;;;;19.75;18.50;;;;;16.68;54.45;99432.03;4961466;28;102550;-42
2022/10/12 04:12:44;;;;;;;;;23.25;20.00;;;;;16.68;53.64;99434.75;4966147;28;104561;-43
2022/10/12 04:18:56;;;;;;;;;30.25;25.25;;;;;16.66;54.19;99440.44;4967199;28;102164;-42
2022/10/12 04:21:23;;;;;;;;;28.50;24.25;;;;;16.65;53.77;99441.50;4974295;27;103062;-42
2022/10/12 04:23:50;;;;;;;;;27.00;23.25;;;;;16.63;53.66;99435.41;4965093;27;109398;-42
2022/10/12 04:26:18;;;;;;;;;28.75;26.00;;;;;16.63;54.59;99438.16;4968819;28;102349;-43
2022/10/12 04:28:44;;;;;;;;;26.75;24.00;;;;;16.62;54.02;99443.81;4968692;28;102630;-42
2022/10/12 04:31:11;;;;;;;;;28.00;24.25;;;;;16.59;53.60;99445.09;4961309;28;102111;-42
2022/10/12 04:33:40;;;;;;;;;26.25;22.00;;;;;16.60;54.10;99438.59;4950229;28;104387;-42
2022/10/12 04:36:09;;;;;;;;;24.50;23.50;;;;;16.58;54.70;99443.41;4943785;28;102373;-43
2022/10/12 04:38:36;;;;;;;;;28.00;23.75;;;;;16.58;54.03;99443.41;4983806;28;102198;-43
2022/10/12 04:41:04;;;;;;;;;25.50;23.75;;;;;16.59;54.12;99449.72;4982017;28;102171;-43
2022/10/12 04:43:31;;;;;;;;;27.75;25.00;;;;;16.58;53.64;99440.69;4987396;28;104098;-43
2022/10/12 04:45:58;;;;;;;;;27.50;24.00;;;;;16.59;54.36;99439.66;4770000;28;103985;-43
2022/10/12 04:48:26;;;;;;;;;26.75;24.25;;;;;16.59;54.28;99441.53;4957197;28;102257;-42
2022/10/12 04:50:53;;;;;;;;;24.50;21.25;;;;;16.59;53.94;99441.53;4973952;28;102417;-42
2022/10/12 04:53:20;;;;;;;;;22.75;22.75;;;;;16.59;55.02;99447.00;4973683;28;104049;-43
2022/10/12 04:55:47;;;;;;;;;28.50;24.00;;;;;16.58;54.23;99437.97;4974045;28;103175;-42
2022/10/12 04:58:14;;;;;;;;;24.75;23.75;;;;;16.58;54.78;99446.16;4974633;28;102564;-43
2022/10/12 05:00:41;;;;;;;;;23.25;21.00;;;;;16.57;54.30;99458.09;4975243;28;102559;-43
2022/10/12 05:03:08;;;;;;;;;27.00;23.50;;;;;16.58;54.19;99453.50;4971182;28;104341;-43
2022/10/12 05:05:35;;;;;;;;;26.75;24.75;;;;;16.57;53.92;99460.81;4957159;28;102255;-42
2022/10/12 05:08:02;;;;;;;;;24.50;19.75;;;;;16.57;54.21;99463.56;4968842;28;102216;-42
2022/10/12 05:10:29;;;;;;;;;27.00;25.00;;;;;16.57;54.09;99465.47;4974361;28;103554;-42
2022/10/12 05:12:56;;;;;;;;;22.00;22.00;;;;;16.56;54.36;99452.88;4973412;28;103829;-42
2022/10/12 05:15:24;;;;;;;;;24.00;21.25;;;;;16.55;54.18;99465.69;4972962;28;102324;-43
2022/10/12 05:17:51;;;;;;;;;20.50;19.50;;;;;16.55;54.11;99460.22;4975915;28;102121;-43
2022/10/12 05:20:18;;;;;;;;;24.75;21.75;;;;;16.53;54.45;99460.44;4974992;28;102633;-43
2022/10/12 05:22:45;;;;;;;;;27.50;23.75;;;;;16.52;54.81;99466.94;4967557;28;104063;-42
2022/10/12 05:25:12;;;;;;;;;24.25;24.00;;;;;16.52;54.38;99461.47;4977406;28;102348;-43
2022/10/12 05:27:39;;;;;;;;;27.75;23.50;;;;;16.51;54.72;99465.28;4974350;28;102191;-43
2022/10/12 05:30:06;;;;;;;;;24.75;23.75;;;;;16.51;53.71;99469.91;4973208;28;102626;-43
2022/10/12 05:32:33;;;;;;;;;26.25;23.00;;;;;16.51;54.37;99467.19;4974924;28;104090;-45
2022/10/12 05:35:01;;;;;;;;;25.75;24.25;;;;;16.50;54.17;99469.06;4976468;28;102402;-43
2022/10/12 05:37:28;;;;;;;;;25.00;20.00;;;;;16.52;54.06;99466.13;4973315;28;103142;-42
2022/10/12 05:39:55;;;;;;;;;23.75;21.50;;;;;16.51;54.63;99469.91;4975787;28;102495;-42
2022/10/12 05:42:22;;;;;;;;;27.50;25.75;;;;;16.51;54.20;99469.91;4975394;28;104171;-42
2022/10/12 05:44:49;;;;;;;;;22.75;22.00;;;;;16.50;54.07;99466.34;4972290;28;102997;-42
2022/10/12 05:47:16;;;;;;;;;25.25;22.75;;;;;16.49;53.84;99466.53;4975680;28;102385;-42
2022/10/12 05:49:43;;;;;;;;;21.75;19.25;;;;;16.50;53.57;99473.69;4978150;28;102131;-42
2022/10/12 05:52:10;;;;;;;;;24.00;22.00;;;;;16.50;53.72;99473.69;4969469;28;108795;-42
2022/10/12 05:54:37;;;;;;;;;26.00;23.25;;;;;16.49;54.52;99474.72;4970071;28;102443;-43
2022/10/12 05:57:04;;;;;;;;;27.00;22.75;;;;;16.48;53.69;99470.31;4974002;28;102696;-42
2022/10/12 05:59:31;;;;;;;;;23.75;20.00;;;;;16.49;54.36;99474.72;4977398;28;102210;-43
2022/10/12 06:01:58;;;;;;;;;22.50;20.00;;;;;16.48;54.16;99473.06;4968830;28;104044;-42
2022/10/12 06:04:25;;;;;;;;;24.00;22.50;;;;;16.48;54.53;99481.25;4969917;28;102478;-42
2022/10/12 06:06:52;;;;;;;;;24.25;23.00;;;;;16.47;54.17;99474.13;4987091;28;102141;-42
2022/10/12 06:09:19;;;;;;;;;25.00;22.00;;;;;16.47;54.08;99474.13;4975269;28;102159;-42
2022/10/12 06:11:46;;;;;;;;;23.00;22.00;;;;;16.45;53.83;99477.06;4972761;28;104126;-43
2022/10/12 06:14:13;;;;;;;;;22.50;19.50;;;;;16.43;54.38;99473.72;4976758;28;102066;-43
2022/10/12 06:16:40;;;;;;;;;23.25;20.75;;;;;16.45;54.05;99478.97;4972049;28;102369;-42
2022/10/12 06:19:10;;;;;;;;;25.75;23.75;;;;;16.44;54.23;99480.00;4974642;28;102243;-43
2022/10/12 06:21:37;;;;;;;;;23.00;22.25;;;;;16.44;54.45;99489.03;4973223;28;104050;-42
2022/10/12 06:24:04;;;;;;;;;26.00;24.25;;;;;16.44;54.64;99483.56;4973302;28;103199;-42
2022/10/12 06:26:31;;;;;;;;;25.00;23.50;;;;;16.46;54.34;99477.91;4973639;28;102383;-42
2022/10/12 06:28:59;;;;;;;;;28.00;25.00;;;;;16.45;53.93;99492.59;4973742;28;102623;-42
2022/10/12 06:31:27;;;;;;;;;26.25;23.25;;;;;16.45;54.68;99482.53;4972631;28;104555;-42
2022/10/12 06:33:54;;;;;;;;;25.25;21.75;;;;;16.46;54.46;99489.66;4973267;28;102495;-42
2022/10/12 06:36:22;;;;;;;;;26.00;23.00;;;;;16.45;54.38;99482.53;4973930;28;102353;-43
2022/10/12 06:38:49;;;;;;;;;25.25;23.50;;;;;16.45;53.92;99484.41;4979438;28;102625;-42
2022/10/12 06:41:16;;;;;;;;;25.00;23.50;;;;;16.45;53.38;99488.00;4975124;28;104163;-42
2022/10/12 06:43:43;;;;;;;;;26.50;23.75;;;;;16.45;54.01;99482.53;4976703;28;102073;-42
2022/10/12 06:46:12;;;;;;;;;29.50;24.00;;;;;16.45;53.48;99489.88;4972587;28;102300;-43
2022/10/12 06:48:39;;;;;;;;;24.75;23.25;;;;;16.46;53.35;99483.38;4974509;28;102431;-43
2022/10/12 06:51:06;;;;;;;;;25.75;23.00;;;;;16.46;54.13;99491.56;4976464;28;103976;-42
2022/10/12 06:53:33;;;;;;;;;23.50;22.50;;;;;16.45;54.03;99493.44;4974986;28;102076;-42
2022/10/12 06:56:10;;;;;;;;;26.00;23.25;;;;;16.45;53.79;99489.88;4975012;28;102372;-42
2022/10/12 06:58:37;;;;;;;;;22.25;14.50;;;;;16.44;54.20;99496.38;4975171;28;102173;-42
2022/10/12 07:01:05;;;;;;;;;33.50;25.25;;;;;16.45;53.52;99495.34;4973287;28;104215;-43
2022/10/12 07:03:32;;;;;;;;;25.25;23.50;;;;;16.44;54.48;99497.22;4975446;28;102394;-42
2022/10/12 07:06:10;;;;;;;;;24.00;22.50;;;;;16.44;54.33;99497.22;4974808;28;102334;-42
2022/10/12 07:08:37;;;;;;;;;26.75;23.25;;;;;16.44;54.03;99496.38;4974312;28;102643;-43
2022/10/12 07:11:05;;;;;;;;;25.50;23.00;;;;;16.44;54.14;99493.66;4976578;28;104185;-43
2022/10/12 07:13:32;;;;;;;;;22.75;21.00;;;;;16.44;53.45;99490.94;4975017;28;103312;-42
2022/10/12 07:15:59;;;;;;;;;24.00;22.00;;;;;16.45;53.48;99492.59;4973988;28;102250;-42
2022/10/12 07:18:26;;;;;;;;;25.75;23.00;;;;;16.45;54.04;99492.59;4973691;28;102186;-43
2022/10/12 07:20:56;;;;;;;;;25.00;22.50;;;;;16.45;53.90;99487.16;4974964;28;104316;-42
2022/10/12 07:23:23;;;;;;;;;20.50;19.75;;;;;16.48;53.35;99498.47;4974519;28;102396;-42
2022/10/12 07:25:51;;;;;;;;;23.75;22.00;;;;;16.47;53.60;99498.69;4973505;28;102646;-42
2022/10/12 07:28:18;;;;;;;;;24.50;21.75;;;;;16.49;53.46;99507.50;4974445;28;102589;-42
2022/10/12 07:30:45;;;;;;;;;25.50;22.50;;;;;16.48;53.75;99492.16;4972082;28;104202;-43
2022/10/12 07:33:12;;;;;;;;;22.75;21.25;;;;;16.47;53.33;99496.81;4976438;28;102338;-42
2022/10/12 07:35:39;;;;;;;;;24.00;21.25;;;;;16.48;53.54;99500.34;4972991;28;101972;-43
2022/10/12 07:38:26;;;;;;;;;26.00;21.25;;;;;16.47;53.78;99490.50;4973953;28;102183;-43
2022/10/12 07:40:53;;;;;;;;;21.25;20.00;;;;;16.48;53.82;99492.16;4971619;28;103557;-42
2022/10/12 07:43:21;;;;;;;;;23.25;21.50;;;;;16.47;53.41;99487.78;4982489;28;102063;-43
2022/10/12 07:45:48;;;;;;;;;25.00;21.50;;;;;16.46;53.36;99481.47;4972824;28;102514;-42
2022/10/12 07:48:15;;;;;;;;;24.50;21.50;;;;;16.47;53.32;99485.06;4976965;28;109611;-42
2022/10/12 07:50:42;;;;;;;;;23.00;21.75;;;;;16.48;53.82;99487.53;4973857;28;108767;-42
2022/10/12 07:53:08;;;;;;;;;24.75;22.00;;;;;16.49;53.60;99485.66;4975846;27;102249;-43
2022/10/12 07:55:35;;;;;;;;;14.25;13.25;;;;;16.48;53.77;99486.69;4973835;28;102403;-42
2022/10/12 07:58:02;;;;;;;;;23.75;22.00;;;;;16.49;53.92;99482.91;4975002;28;102404;-43
2022/10/12 08:00:31;;;;;;;;;21.50;19.50;;;;;16.48;53.71;99487.53;4973308;28;105170;-42
2022/10/12 08:02:58;;;;;;;;;25.00;21.00;;;;;16.49;54.14;99482.91;4973627;28;102161;-42
2022/10/12 08:05:25;;;;;;;;;23.25;23.25;;;;;16.50;53.71;99479.16;4973913;28;102240;-42
2022/10/12 08:07:53;;;;;;;;;23.50;21.25;;;;;16.50;53.42;99480.00;4975079;28;102453;-42
2022/10/12 08:10:20;;;;;;;;;20.00;19.00;;;;;16.51;53.01;99478.09;4972460;28;103885;-42
2022/10/12 08:12:47;;;;;;;;;28.50;22.75;;;;;16.51;53.24;99480.81;4972538;28;102558;-43
2022/10/12 08:15:17;;;;;;;;;23.00;22.00;;;;;16.52;53.69;99487.97;4978268;28;102513;-43
2022/10/12 08:17:44;;;;;;;;;24.75;22.75;;;;;16.52;53.93;99480.59;4995035;28;102160;-43
2022/10/12 08:20:11;;;;;;;;;20.25;18.75;;;;;16.53;54.35;99482.28;4973544;28;108974;-42
2022/10/12 08:22:38;;;;;;;;;22.75;21.25;;;;;16.53;53.52;99482.28;4971124;28;102413;-42
2022/10/12 08:25:06;;;;;;;;;21.25;19.75;;;;;16.54;53.23;99480.38;4973001;28;102443;-42
2022/10/12 08:27:34;;;;;;;;;27.25;22.50;;;;;16.54;53.79;99485.84;4973813;28;102399;-42
2022/10/12 08:30:01;;;;;;;;;28.00;22.25;;;;;16.55;54.03;99475.75;4963962;28;104018;-43
2022/10/12 08:32:30;;;;;;;;;22.50;20.50;;;;;16.55;53.28;99483.97;4972514;28;102408;-42
2022/10/12 08:34:57;;;;;;;;;24.50;22.75;;;;;16.55;53.50;99482.06;4964551;28;102232;-43
2022/10/12 08:37:24;;;;;;;;;21.00;20.00;;;;;16.55;53.31;99476.59;4973269;28;103087;-42
2022/10/12 08:39:51;;;;;;;;;24.75;23.50;;;;;16.55;53.81;99482.06;4960486;28;104227;-42
2022/10/12 08:42:27;;;;;;;;;23.25;22.00;;;;;16.56;53.12;99483.75;4970369;28;102519;-43
2022/10/12 08:45:08;;;;;;;;;22.25;20.50;;;;;16.57;53.30;99481.84;4963942;28;102476;-43
2022/10/12 08:47:43;;;;;;;;;23.00;23.00;;;;;16.57;53.72;99479.13;4971325;28;102610;-43
2022/10/12 08:50:34;;;;;;;;;23.75;21.75;;;;;16.56;53.73;99480.19;4971281;28;108666;-42
2022/10/12 08:53:18;;;;;;;;;27.75;23.50;;;;;16.57;53.43;99481.84;4960990;28;107217;-43
2022/10/12 08:55:45;;;;;;;;;24.50;21.00;;;;;16.58;53.11;99481.66;4967306;28;102305;-42
2022/10/12 08:58:23;;;;;;;;;26.25;23.75;;;;;16.59;52.80;99487.94;4975747;28;102350;-43
2022/10/12 09:00:56;;;;;;;;;24.00;21.75;;;;;16.59;53.27;99483.34;4970849;28;108795;-43
2022/10/12 09:03:53;;;;;;;;;28.75;23.75;;;;;16.60;53.24;99485.00;4970261;28;102368;-42
2022/10/12 09:06:48;;;;;;;;;24.00;20.75;;;;;16.61;53.38;99481.22;4971235;28;102266;-42
2022/10/12 09:09:26;;;;;;;;;18.50;18.50;;;;;16.63;53.65;99484.56;4959936;28;102294;-42
2022/10/12 09:12:20;;;;;;;;;21.25;20.75;;;;;16.63;53.47;99476.38;4954581;28;104103;-43
2022/10/12 09:14:47;;;;;;;;;23.00;21.50;;;;;16.64;53.03;99469.88;4971668;28;102307;-42
2022/10/12 09:17:54;;;;;;;;;27.25;22.50;;;;;16.64;53.62;99469.88;4978172;28;102308;-42
2022/10/12 09:20:29;;;;;;;;;24.75;23.00;;;;;16.66;54.25;99467.75;4905070;28;103334;-42
2022/10/12 09:23:06;;;;;;;;;22.50;20.00;;;;;16.65;53.25;99466.09;4879500;28;104184;-43
2022/10/12 09:25:33;;;;;;;;;23.00;21.50;;;;;16.67;54.02;99468.56;4932644;28;102450;-42
2022/10/12 09:28:14;;;;;;;;;21.75;18.75;;;;;16.67;53.32;99463.13;4973145;28;104530;-42
2022/10/12 09:30:44;;;;;;;;;24.25;22.25;;;;;16.67;53.20;99463.94;4974877;28;103002;-42
2022/10/12 09:33:18;;;;;;;;;21.75;18.00;;;;;16.69;53.37;99461.84;4953206;28;109501;-42
2022/10/12 09:35:46;;;;;;;;;27.00;20.75;;;;;16.70;53.41;99462.69;4954774;28;102373;-43
2022/10/12 09:38:13;;;;;;;;;23.50;21.25;;;;;16.70;53.73;99460.81;4951954;28;102581;-42
2022/10/12 09:40:40;;;;;;;;;21.25;20.00;;;;;16.70;52.79;99463.53;4974574;28;102281;-42
2022/10/12 09:43:07;;;;;;;;;22.75;22.50;;;;;16.73;52.79;99467.72;4974466;28;104156;-42
2022/10/12 09:45:34;;;;;;;;;17.50;16.50;;;;;16.73;53.60;99474.00;4952326;28;102545;-43
2022/10/12 09:48:09;;;;;;;;;20.25;18.00;;;;;16.75;52.75;99462.88;4972302;28;102304;-42
2022/10/12 09:50:49;;;;;;;;;21.00;18.50;;;;;16.75;52.97;99463.69;4968285;28;102632;-43
2022/10/12 09:53:34;;;;;;;;;21.50;21.25;;;;;16.77;53.46;99469.78;4974742;27;109575;-43
2022/10/12 09:56:07;;;;;;;;;19.50;18.50;;;;;16.79;53.00;99456.75;4973449;28;102591;-42
2022/10/12 09:58:55;;;;;;;;;19.75;17.50;;;;;16.80;53.17;99452.94;4975038;28;102185;-42
2022/10/12 10:01:24;;;;;;;;;19.25;17.75;;;;;16.82;53.42;99461.78;4973339;28;102577;-42
2022/10/12 10:04:21;;;;;;;;;27.00;20.50;;;;;16.83;53.31;99462.63;4974071;28;104164;-43
2022/10/12 10:06:49;;;;;;;;;18.25;18.25;;;;;16.84;52.69;99456.91;4971630;28;102569;-42
2022/10/12 10:09:33;;;;;;;;;20.25;18.25;;;;;16.85;52.64;99457.75;4975179;28;102286;-42
2022/10/12 10:12:21;;;;;;;;;19.75;19.00;;;;;16.88;53.54;99451.88;4975995;28;103258;-42
2022/10/12 10:14:49;;;;;;;;;19.75;18.25;;;;;16.87;52.72;99459.22;4952719;28;108289;-43
2022/10/12 10:17:22;;;;;;;;;18.00;17.00;;;;;16.88;53.17;99449.13;4976703;28;102627;-43
2022/10/12 10:19:50;;;;;;;;;21.00;19.50;;;;;16.89;53.45;99446.16;4958253;28;102510;-43
2022/10/12 10:22:18;;;;;;;;;20.00;18.25;;;;;16.91;53.10;99443.22;4967334;28;102552;-42
2022/10/12 10:24:56;;;;;;;;;22.00;17.25;;;;;16.93;53.27;99450.13;4972182;28;104016;-42
2022/10/12 10:27:36;;;;;;;;;24.00;20.00;;;;;16.93;53.01;99447.38;4965093;28;102515;-42
2022/10/12 10:30:16;;;;;;;;;19.25;16.25;;;;;16.95;52.37;99448.03;4964318;28;102308;-42
2022/10/12 10:33:27;;;;;;;;;4.00;3.00;;;;;16.98;53.43;99449.44;4971058;28;102535;-43
2022/10/12 10:36:03;;;;;;;;;21.00;17.50;;;;;17.00;52.67;99450.09;4953504;28;108888;-43
2022/10/12 10:38:49;;;;;;;;;18.25;16.25;;;;;17.01;52.34;99448.19;4971026;28;102405;-43
2022/10/12 10:41:19;;;;;;;;;20.25;18.00;;;;;17.03;52.74;99446.06;4970652;28;102408;-42
2022/10/12 10:43:46;;;;;;;;;19.25;17.25;;;;;17.04;52.76;99447.75;4975942;28;102660;-43
2022/10/12 10:46:14;;;;;;;;;17.00;14.75;;;;;17.05;52.88;99444.78;4953045;28;104203;-43
2022/10/12 10:48:53;;;;;;;;;18.75;15.75;;;;;17.05;53.15;99439.34;4961532;28;102086;-43
2022/10/12 10:51:21;;;;;;;;;21.00;17.00;;;;;17.06;53.17;99445.63;4967969;28;104882;-42
2022/10/12 10:53:49;;;;;;;;;16.75;16.25;;;;;17.08;52.97;99446.22;4969671;28;102180;-43
2022/10/12 10:56:25;;;;;;;;;15.25;14.00;;;;;17.08;53.21;99435.31;4972861;28;104063;-43
2022/10/12 10:58:54;;;;;;;;;15.75;14.50;;;;;17.10;53.04;99441.41;4975668;28;102339;-43
2022/10/12 11:01:36;;;;;;;;;17.00;14.50;;;;;17.10;52.46;99438.66;4972051;28;102468;-43
2022/10/12 11:04:21;;;;;;;;;19.50;16.25;;;;;17.12;52.28;99433.78;4972420;28;102487;-42
2022/10/12 11:06:57;;;;;;;;;16.00;15.00;;;;;17.12;52.70;99436.53;4955867;28;108712;-42
2022/10/12 11:09:28;;;;;;;;;12.25;10.75;;;;;17.14;52.29;99434.41;4952360;28;102470;-42
2022/10/12 11:12:01;;;;;;;;;17.00;15.00;;;;;17.14;52.62;99434.41;4964914;28;103194;-43
2022/10/12 11:14:34;;;;;;;;;15.25;15.00;;;;;17.14;52.16;99435.25;4941416;28;102453;-43
2022/10/12 11:17:04;;;;;;;;;16.50;15.50;;;;;17.14;53.08;99426.22;4965899;28;104838;-43
2022/10/12 11:19:50;;;;;;;;;15.50;15.25;;;;;17.14;51.98;99429.78;4974417;28;102342;-43
2022/10/12 11:22:23;;;;;;;;;15.50;13.75;;;;;17.16;52.72;99433.13;4954659;28;102310;-42
2022/10/12 11:25:20;;;;;;;;;14.00;13.00;;;;;17.18;52.60;99430.19;4956055;28;102364;-43
2022/10/12 11:27:47;;;;;;;;;17.75;15.75;;;;;17.18;52.40;99419.25;4956161;28;109243;-42
2022/10/12 11:30:21;;;;;;;;;17.25;14.00;;;;;17.19;52.36;99418.19;4953271;28;102304;-43
2022/10/12 11:33:04;;;;;;;;;15.50;14.25;;;;;17.17;52.54;99415.69;4973655;28;103106;-43